Time;durP1;ratioP1;P1;durP2;ratioP2;P2;SDS_P1;SDS_P2;PMS_P1;PMS_P2;Temp;Humidity;BMP_temperature;BMP_pressure;BME280_temperature;BME280_humidity;BME280_pressure;Samples;Min_cycle;Max_cycle;Signal;HPM_P1;HPM_P2
2022/05/09 00:00:30;;;;;;;5.90;2.77;;;;;;;14.61;100.00;99951.88;5089015;28;20195;-80
2022/05/09 00:03:01;;;;;;;8.87;2.60;;;;;;;14.70;100.00;99950.38;5089256;28;20234;-80
2022/05/09 00:05:30;;;;;;;7.37;2.30;;;;;;;14.51;100.00;99950.78;5088585;28;20210;-81
2022/05/09 00:08:01;;;;;;;8.23;2.70;;;;;;;14.50;100.00;99951.75;5091294;28;20255;-80
2022/05/09 00:10:30;;;;;;;9.03;2.40;;;;;;;14.61;100.00;99949.19;5091684;28;20191;-80
2022/05/09 00:12:59;;;;;;;5.43;2.30;;;;;;;14.60;100.00;99950.16;5088114;28;20211;-80
2022/05/09 00:15:28;;;;;;;5.63;2.13;;;;;;;14.44;100.00;99952.13;5030725;28;20194;-80
2022/05/09 00:17:57;;;;;;;4.73;1.80;;;;;;;14.37;100.00;99949.00;5020854;28;20225;-80
2022/05/09 00:20:27;;;;;;;5.13;1.80;;;;;;;14.22;100.00;99948.22;5030802;28;20220;-80
2022/05/09 00:22:57;;;;;;;3.87;1.93;;;;;;;14.14;100.00;99957.66;5030970;28;20201;-80
2022/05/09 00:25:31;;;;;;;5.50;2.60;;;;;;;14.16;100.00;99948.63;5029209;28;20226;-80
2022/05/09 00:27:59;;;;;;;4.63;1.90;;;;;;;14.12;100.00;99955.13;5034209;28;20204;-79
2022/05/09 00:30:28;;;;;;;6.00;1.93;;;;;;;14.14;100.00;99953.19;5031964;28;20200;-80
2022/05/09 00:32:56;;;;;;;5.93;1.70;;;;;;;14.28;100.00;99958.47;4965176;28;20633;-80
2022/05/09 00:35:28;;;;;;;4.40;1.80;;;;;;;14.14;100.00;99957.66;5027534;28;20301;-81
2022/05/09 00:37:58;;;;;;;3.93;1.77;;;;;;;14.14;100.00;99952.34;5031441;28;20237;-80
2022/05/09 00:40:31;;;;;;;8.87;2.30;;;;;;;13.97;100.00;99967.63;5033700;28;20205;-80
2022/05/09 00:43:00;;;;;;;3.20;1.90;;;;;;;13.68;100.00;99966.81;5037419;28;20194;-80
2022/05/09 00:45:34;;;;;;;3.03;2.03;;;;;;;13.50;100.00;99970.66;5029001;28;20212;-79
2022/05/09 00:48:04;;;;;;;5.50;2.10;;;;;;;13.50;100.00;99969.78;5032634;28;20194;-80
2022/05/09 00:50:36;;;;;;;6.23;2.10;;;;;;;13.53;100.00;99959.84;5025135;28;20198;-80
2022/05/09 00:53:15;;;;;;;5.80;2.13;;;;;;;13.34;100.00;99959.28;5032553;28;20212;-80
2022/05/09 00:55:50;;;;;;;3.70;2.00;;;;;;;13.61;100.00;99954.88;5027522;28;20212;-80
2022/05/09 00:58:24;;;;;;;2.43;1.90;;;;;;;13.59;100.00;99950.59;5079396;28;20218;-80
2022/05/09 01:00:56;;;;;;;4.03;2.10;;;;;;;13.67;100.00;99950.94;5092281;28;20200;-79
2022/05/09 01:03:30;;;;;;;4.87;2.03;;;;;;;13.61;100.00;99954.03;5088211;28;20230;-79
2022/05/09 01:06:00;;;;;;;2.73;1.90;;;;;;;13.61;100.00;99951.38;5095835;28;20279;-80
2022/05/09 01:08:35;;;;;;;5.03;2.30;;;;;;;13.67;100.00;99954.47;5091560;28;20203;-80
2022/05/09 01:11:09;;;;;;;6.03;2.00;;;;;;;13.28;100.00;99954.31;5091485;28;20606;-80
2022/05/09 01:13:43;;;;;;;3.97;2.00;;;;;;;13.20;100.00;99946.81;5087249;28;20251;-80
2022/05/09 01:16:16;;;;;;;4.33;1.97;;;;;;;13.16;100.00;99953.25;5090573;28;20191;-80
2022/05/09 01:18:46;;;;;;;5.73;2.20;;;;;;;13.29;100.00;99946.25;5090754;28;20250;-80
2022/05/09 01:21:36;;;;;;;3.87;1.90;;;;;;;13.34;100.00;99948.63;5089927;28;20199;-80
2022/05/09 01:24:14;;;;;;;4.70;1.93;;;;;;;13.24;100.00;99944.84;5095029;28;20204;-80
2022/05/09 01:26:44;;;;;;;3.30;1.80;;;;;;;13.32;100.00;99945.22;5052753;28;20220;-80
2022/05/09 01:29:24;;;;;;;3.70;2.10;;;;;;;13.31;100.00;99941.69;5048284;28;20197;-80
2022/05/09 01:31:54;;;;;;;3.80;1.90;;;;;;;13.10;100.00;99943.84;5047939;28;20196;-79
2022/05/09 01:34:22;;;;;;;3.63;1.67;;;;;;;13.29;100.00;99932.09;5051699;28;20195;-80
2022/05/09 01:36:59;;;;;;;3.60;1.80;;;;;;;13.21;100.00;99937.88;5049726;28;20216;-80
2022/05/09 01:39:30;;;;;;;4.43;1.90;;;;;;;13.39;100.00;99926.09;5047880;28;20308;-80
2022/05/09 01:42:05;;;;;;;4.37;2.20;;;;;;;13.29;100.00;99942.72;5046594;28;20207;-80
2022/05/09 01:44:34;;;;;;;5.93;1.90;;;;;;;13.31;100.00;99927.53;5060510;28;20206;-80
2022/05/09 01:49:48;;;;;;;5.53;1.80;;;;;;;13.26;100.00;99930.47;5093361;28;20271;-79
2022/05/09 01:52:21;;;;;;;7.03;2.10;;;;;;;13.05;100.00;99937.97;5092178;28;20200;-80
2022/05/09 01:54:50;;;;;;;4.23;2.07;;;;;;;13.00;100.00;99934.72;5088741;28;20200;-80
2022/05/09 01:57:19;;;;;;;4.67;2.00;;;;;;;13.06;100.00;99936.16;5090217;28;20702;-80
2022/05/09 01:59:47;;;;;;;4.70;1.90;;;;;;;12.90;100.00;99937.09;5088567;28;20223;-80
2022/05/09 02:02:21;;;;;;;5.77;2.20;;;;;;;12.76;100.00;99944.22;5089443;28;20198;-80
2022/05/09 02:04:51;;;;;;;4.17;1.90;;;;;;;12.86;100.00;99935.56;4972374;28;20250;-80
2022/05/09 02:07:23;;;;;;;6.53;2.10;;;;;;;12.72;100.00;99942.66;4966254;28;20204;-80
2022/05/09 02:09:51;;;;;;;3.07;1.80;;;;;;;12.68;100.00;99939.34;4968570;28;20204;-80
2022/05/09 02:12:21;;;;;;;5.47;2.13;;;;;;;12.47;100.00;99941.47;4973611;28;20191;-80
2022/05/09 02:14:51;;;;;;;3.50;2.00;;;;;;;12.41;100.00;99956.94;4973684;28;20192;-80
2022/05/09 02:17:19;;;;;;;9.27;3.23;;;;;;;12.36;100.00;99953.69;4969467;28;20204;-80
2022/05/09 02:19:48;;;;;;;5.97;1.97;;;;;;;12.58;100.00;99951.47;4964414;28;20224;-80
2022/05/09 02:22:19;;;;;;;5.07;2.17;;;;;;;12.63;100.00;99945.88;4980063;28;20194;-80
2022/05/09 02:24:52;;;;;;;6.93;2.20;;;;;;;12.52;100.00;99951.81;5026709;28;20209;-80
2022/05/09 02:27:28;;;;;;;4.53;2.00;;;;;;;12.49;100.00;99949.38;5021157;28;20242;-80
2022/05/09 02:29:57;;;;;;;9.20;2.33;;;;;;;12.23;100.00;99943.75;5068174;28;20277;-80
2022/05/09 02:32:26;;;;;;;5.73;1.77;;;;;;;12.42;100.00;99938.22;5080153;28;20206;-80
2022/05/09 02:34:54;;;;;;;3.73;1.80;;;;;;;12.61;100.00;99938.00;5089368;28;20192;-80
2022/05/09 02:37:25;;;;;;;5.27;2.20;;;;;;;12.66;100.00;99935.94;5087910;28;20259;-80
2022/05/09 02:40:00;;;;;;;4.90;1.80;;;;;;;12.65;100.00;99938.69;5089428;28;20288;-80
2022/05/09 02:42:29;;;;;;;4.67;2.13;;;;;;;12.52;100.00;99944.72;5089491;28;20192;-80
2022/05/09 02:44:57;;;;;;;3.47;2.00;;;;;;;12.55;100.00;99944.56;5092317;28;20203;-80
2022/05/09 02:47:26;;;;;;;3.83;2.10;;;;;;;12.60;100.00;99938.94;5084299;28;20245;-80
2022/05/09 02:49:55;;;;;;;3.60;1.87;;;;;;;12.69;100.00;99929.56;5092126;28;20188;-81
2022/05/09 02:52:26;;;;;;;5.83;2.10;;;;;;;12.49;100.00;99941.38;5092879;28;20199;-80
2022/05/09 02:54:56;;;;;;;4.07;2.27;;;;;;;12.50;100.00;99943.09;5095861;28;20194;-80
2022/05/09 02:57:27;;;;;;;4.43;2.03;;;;;;;12.51;100.00;99942.16;5096418;28;20191;-80
2022/05/09 02:59:56;;;;;;;6.07;2.20;;;;;;;12.63;100.00;99932.59;5093880;28;20241;-80
2022/05/09 03:02:30;;;;;;;5.77;2.40;;;;;;;12.64;100.00;99936.94;5086941;28;20210;-80
2022/05/09 03:04:57;;;;;;;4.70;1.93;;;;;;;12.54;100.00;99947.28;5103597;28;20304;-80
2022/05/09 03:07:25;;;;;;;6.90;2.57;;;;;;;12.58;100.00;99936.38;5105071;28;20199;-79
2022/05/09 03:09:54;;;;;;;5.23;2.20;;;;;;;12.54;100.00;99945.47;5105240;28;20198;-80
2022/05/09 03:12:22;;;;;;;7.90;2.37;;;;;;;12.43;100.00;99945.25;5108706;28;20206;-80
2022/05/09 03:14:53;;;;;;;6.93;2.60;;;;;;;12.36;100.00;99948.38;5113878;28;20195;-80
2022/05/09 03:17:22;;;;;;;8.23;2.43;;;;;;;12.35;100.00;99946.66;5107452;28;20202;-80
2022/05/09 03:19:51;;;;;;;6.93;2.47;;;;;;;12.25;100.00;99949.84;5112124;28;20734;-80
2022/05/09 03:22:19;;;;;;;6.10;2.43;;;;;;;12.39;100.00;99949.03;5112212;28;20187;-80
2022/05/09 03:24:48;;;;;;;4.70;2.20;;;;;;;12.33;100.00;99944.09;5113923;28;20195;-80
2022/05/09 03:27:18;;;;;;;5.57;2.40;;;;;;;12.33;100.00;99950.25;5106820;28;20198;-79
2022/05/09 03:29:47;;;;;;;3.70;2.07;;;;;;;12.29;100.00;99943.41;5110347;28;20191;-80
2022/05/09 03:32:18;;;;;;;6.37;2.40;;;;;;;12.41;100.00;99943.63;5106482;28;20278;-80
2022/05/09 03:34:48;;;;;;;3.40;2.20;;;;;;;12.21;100.00;99943.00;5110057;27;20199;-80
2022/05/09 03:37:16;;;;;;;5.57;2.00;;;;;;;12.26;100.00;99946.25;5106480;28;20217;-80
2022/05/09 03:39:46;;;;;;;5.57;2.33;;;;;;;12.21;100.00;99947.47;5108272;28;20295;-80
2022/05/09 03:42:16;;;;;;;5.83;2.57;;;;;;;12.21;100.00;99953.63;5110961;28;20194;-80
2022/05/09 03:44:44;;;;;;;6.63;2.17;;;;;;;12.25;100.00;99944.53;5104406;28;20191;-80
2022/05/09 03:47:14;;;;;;;5.87;2.60;;;;;;;12.39;100.00;99948.19;5108506;28;20280;-81
2022/05/09 03:49:44;;;;;;;6.27;2.37;;;;;;;12.31;100.00;99953.94;5114055;27;20205;-79
2022/05/09 03:52:12;;;;;;;7.67;2.37;;;;;;;12.46;100.00;99946.91;5107941;28;20199;-80
2022/05/09 03:54:41;;;;;;;6.53;2.30;;;;;;;12.29;100.00;99950.53;5115271;28;20213;-80
2022/05/09 03:57:10;;;;;;;5.03;2.30;;;;;;;12.47;100.00;99949.47;5116217;28;20209;-80
2022/05/09 03:59:38;;;;;;;5.50;2.33;;;;;;;12.56;100.00;99948.06;5054711;28;20228;-80
2022/05/09 04:02:10;;;;;;;5.70;2.30;;;;;;;12.47;100.00;99956.56;5049032;28;20193;-81
2022/05/09 04:04:43;;;;;;;5.20;2.20;;;;;;;12.39;100.00;99949.03;5055354;28;20196;-80
2022/05/09 04:07:12;;;;;;;7.97;2.40;;;;;;;12.24;100.00;99952.59;5054508;28;20284;-80
2022/05/09 04:09:41;;;;;;;4.90;2.20;;;;;;;12.19;100.00;99952.88;5049679;28;20267;-80
2022/05/09 04:12:11;;;;;;;5.30;2.10;;;;;;;12.27;100.00;99955.94;5045630;28;20204;-80
2022/05/09 04:17:26;;;;;;;5.57;2.00;;;;;;;12.16;100.00;99965.44;5076381;28;20214;-80
2022/05/09 04:19:56;;;;;;;7.53;2.40;;;;;;;12.14;100.00;99962.03;5081129;28;20764;-80
2022/05/09 04:22:27;;;;;;;7.70;2.53;;;;;;;12.01;100.00;99969.84;5115779;28;20195;-80
2022/05/09 04:24:55;;;;;;;8.20;2.50;;;;;;;12.12;100.00;99961.28;5109973;28;20211;-80
2022/05/09 04:27:24;;;;;;;5.73;2.53;;;;;;;12.09;100.00;99966.78;5111197;28;20199;-80
2022/05/09 04:29:53;;;;;;;5.43;2.50;;;;;;;12.11;100.00;99965.72;5096851;28;20195;-80
2022/05/09 04:32:23;;;;;;;10.70;2.63;;;;;;;12.01;100.00;99968.06;5114249;28;20223;-80
2022/05/09 04:34:52;;;;;;;5.33;2.30;;;;;;;11.77;100.00;99972.03;5091065;28;20227;-80
2022/05/09 04:37:21;;;;;;;6.10;2.30;;;;;;;11.74;100.00;99972.22;5089791;28;20246;-80
2022/05/09 04:39:50;;;;;;;4.33;2.43;;;;;;;11.78;100.00;99973.78;5086540;28;20222;-80
2022/05/09 04:42:20;;;;;;;5.07;2.57;;;;;;;11.82;100.00;99983.31;5091392;28;20274;-79
2022/05/09 04:44:48;;;;;;;6.47;2.30;;;;;;;11.72;100.00;99974.13;5091439;28;20206;-80
2022/05/09 04:47:18;;;;;;;6.37;2.33;;;;;;;11.94;100.00;99979.97;5089847;28;20214;-80
2022/05/09 04:49:46;;;;;;;8.03;2.60;;;;;;;12.04;100.00;99975.84;5083341;28;20211;-79
2022/05/09 04:52:22;;;;;;;10.03;2.70;;;;;;;11.87;100.00;99972.41;5094392;28;20205;-80
2022/05/09 04:54:51;;;;;;;6.73;2.67;;;;;;;11.91;100.00;99976.63;5115535;27;20199;-80
2022/05/09 04:57:19;;;;;;;5.83;2.43;;;;;;;12.22;100.00;99968.63;5114425;28;20191;-80
2022/05/09 04:59:48;;;;;;;5.87;2.40;;;;;;;12.26;100.00;99972.81;5112617;28;20301;-81
2022/05/09 05:02:17;;;;;;;3.60;2.17;;;;;;;12.10;100.00;99971.13;5116106;28;20277;-79
2022/05/09 05:04:46;;;;;;;5.90;2.50;;;;;;;12.06;100.00;99973.09;5114485;27;20214;-80
2022/05/09 05:07:16;;;;;;;4.90;2.43;;;;;;;12.24;100.00;99964.06;5112366;28;20681;-80
2022/05/09 05:09:46;;;;;;;5.80;2.53;;;;;;;12.24;100.00;99976.50;5114702;28;20222;-81
2022/05/09 05:12:15;;;;;;;7.07;2.47;;;;;;;12.56;100.00;99970.19;5114922;28;20194;-80
2022/05/09 05:14:44;;;;;;;4.90;2.40;;;;;;;12.72;100.00;99971.91;5112522;28;20195;-80
2022/05/09 05:17:15;;;;;;;5.70;2.37;;;;;;;12.90;100.00;99969.00;5114012;28;20202;-80
2022/05/09 05:19:44;;;;;;;9.27;2.77;;;;;;;12.92;100.00;99971.56;5112468;27;20210;-80
2022/05/09 05:22:15;;;;;;;5.43;2.10;;;;;;;12.92;100.00;99966.25;5033244;28;20190;-80
2022/05/09 05:24:47;;;;;;;5.83;2.43;;;;;;;12.94;100.00;99969.69;5030534;28;20208;-80
2022/05/09 05:27:15;;;;;;;6.43;2.30;;;;;;;12.95;100.00;99973.19;5025370;28;20228;-80
2022/05/09 05:29:44;;;;;;;9.87;2.40;;;;;;;12.99;100.00;99977.38;5028115;28;20194;-80
2022/05/09 05:32:17;;;;;;;4.63;2.13;;;;;;;13.21;100.00;99969.81;5026893;28;20332;-80
2022/05/09 05:34:47;;;;;;;8.50;2.80;;;;;;;13.16;100.00;99978.06;4983286;28;20210;-80
2022/05/09 05:37:16;;;;;;;4.57;2.07;;;;;;;13.39;100.00;99975.78;5026475;28;20235;-80
2022/05/09 05:39:46;;;;;;;6.23;2.20;;;;;;;13.40;100.00;99978.34;5048741;28;20208;-80
2022/05/09 05:42:18;;;;;;;4.53;2.43;;;;;;;13.52;100.00;99979.41;5113311;28;20202;-80
2022/05/09 05:44:48;;;;;;;5.07;2.27;;;;;;;13.69;100.00;99976.53;5115213;28;20187;-80
2022/05/09 05:47:20;;;;;;;6.67;2.23;;;;;;;13.73;100.00;99979.84;5112771;28;20194;-80
2022/05/09 05:49:49;;;;;;;6.60;2.40;;;;;;;13.52;100.00;99981.22;5114326;28;20226;-81
2022/05/09 05:52:19;;;;;;;5.27;2.47;;;;;;;13.75;100.00;99977.94;5113999;28;20198;-80
2022/05/09 05:54:48;;;;;;;4.37;2.40;;;;;;;13.70;100.00;99988.91;5112441;28;20691;-80
2022/05/09 05:57:20;;;;;;;8.20;2.40;;;;;;;13.85;100.00;99983.53;5108066;28;20203;-80
2022/05/09 05:59:50;;;;;;;4.70;2.40;;;;;;;13.79;100.00;99984.78;5114186;28;20222;-80
2022/05/09 06:02:21;;;;;;;4.27;2.13;;;;;;;14.04;100.00;99978.72;5104060;28;20242;-81
2022/05/09 06:04:50;;;;;;;4.13;2.10;;;;;;;14.16;100.00;99982.41;5107599;28;20207;-80
2022/05/09 06:07:20;;;;;;;5.83;2.20;;;;;;;14.22;100.00;99987.34;5102358;28;20187;-80
2022/05/09 06:09:54;;;;;;;7.83;2.20;;;;;;;14.22;100.00;99988.19;5107198;28;20191;-80
2022/05/09 06:12:24;;;;;;;4.50;2.37;;;;;;;14.49;100.00;99990.03;5100818;28;20199;-80
2022/05/09 06:17:35;;;;;;;4.17;2.20;;;;;;;14.76;100.00;99992.63;5106235;28;20305;-81
2022/05/09 06:20:13;;;;;;;6.37;2.63;;;;;;;14.82;100.00;99990.41;5112860;28;20191;-81
2022/05/09 06:22:44;;;;;;;7.33;2.20;;;;;;;14.54;100.00;99988.75;5111355;28;20197;-81
2022/05/09 06:25:17;;;;;;;7.10;2.67;;;;;;;14.35;100.00;99990.88;5105783;28;20203;-80
2022/05/09 06:27:45;;;;;;;5.73;2.33;;;;;;;14.43;100.00;99987.72;5107827;28;20210;-80
2022/05/09 06:30:16;;;;;;;5.63;2.27;;;;;;;14.72;100.00;99989.31;5067242;28;20199;-80
2022/05/09 06:32:44;;;;;;;5.47;2.40;;;;;;;14.81;100.00;99988.69;5070305;28;20192;-80
2022/05/09 06:35:20;;;;;;;8.37;2.37;;;;;;;14.81;100.00;99988.69;5069164;28;20200;-80
2022/05/09 06:37:50;;;;;;;5.53;2.23;;;;;;;15.03;100.00;99989.88;5071070;28;20203;-80
2022/05/09 06:40:21;;;;;;;6.30;2.30;;;;;;;15.11;100.00;99982.22;5068005;28;20208;-81
2022/05/09 06:42:51;;;;;;;7.03;2.23;;;;;;;15.38;100.00;99979.44;5064964;28;20216;-81
2022/05/09 06:45:20;;;;;;;7.53;2.20;;;;;;;15.63;100.00;99983.88;5071495;28;20199;-81
2022/05/09 06:47:53;;;;;;;7.33;2.17;;;;;;;15.74;100.00;99992.00;5080880;28;20282;-80
2022/05/09 06:50:28;;;;;;;6.80;1.93;;;;;;;16.04;100.00;99972.91;5116354;27;20225;-81
2022/05/09 06:52:56;;;;;;;6.40;2.50;;;;;;;15.90;100.00;99989.06;5113405;28;20202;-80
2022/05/09 06:55:48;;;;;;;8.07;2.30;;;;;;;15.86;100.00;99987.59;5113834;28;20241;-82
2022/05/09 06:58:21;;;;;;;4.10;2.10;;;;;;;16.15;100.00;99983.63;5107434;28;20198;-81
2022/05/09 07:00:50;;;;;;;3.80;2.17;;;;;;;16.20;100.00;99983.28;5114083;28;20289;-81
2022/05/09 07:03:20;;;;;;;11.07;2.40;;;;;;;16.13;100.00;99990.06;5112729;28;20194;-81
2022/05/09 07:05:51;;;;;;;6.17;2.67;;;;;;;16.09;100.00;99989.44;5109244;28;20199;-81
2022/05/09 07:08:22;;;;;;;6.13;1.87;;;;;;;16.33;100.00;99997.47;5114056;28;20280;-81
2022/05/09 07:10:52;;;;;;;6.17;2.60;;;;;;;16.31;100.00;99986.91;5110277;28;20278;-81
2022/05/09 07:13:41;;;;;;;6.77;2.27;;;;;;;16.58;100.00;99985.78;5114143;28;20207;-81
2022/05/09 07:16:11;;;;;;;4.70;2.10;;;;;;;16.74;100.00;99990.84;5111862;28;20191;-81
2022/05/09 07:18:42;;;;;;;6.10;2.60;;;;;;;16.64;100.00;99988.00;5112410;28;20187;-81
2022/05/09 07:21:10;;;;;;;5.90;2.47;;;;;;;16.55;100.00;99992.22;5113522;28;20246;-80
2022/05/09 07:23:42;;;;;;;5.17;2.70;;;;;;;16.59;100.00;99991.00;5113608;28;20199;-81
2022/05/09 07:26:12;;;;;;;4.73;2.10;;;;;;;16.65;100.00;99984.34;5111735;28;20221;-82
2022/05/09 07:28:47;;;;;;;3.77;2.33;;;;;;;17.09;100.00;99988.16;5115233;28;20250;-81
2022/05/09 07:31:16;;;;;;;4.97;2.40;;;;;;;17.16;100.00;99990.22;5118304;27;20206;-81
2022/05/09 07:33:45;;;;;;;7.00;2.33;;;;;;;17.28;100.00;99990.25;5114835;28;20262;-81
2022/05/09 07:36:13;;;;;;;4.10;2.10;;;;;;;17.51;100.00;99978.56;5114885;28;20198;-81
2022/05/09 07:38:42;;;;;;;5.27;2.50;;;;;;;17.63;100.00;99990.13;5117652;28;20195;-81
2022/05/09 07:41:12;;;;;;;5.73;2.30;;;;;;;17.27;100.00;100000.06;5115114;28;20214;-80
2022/05/09 07:43:40;;;;;;;5.57;2.63;;;;;;;17.40;100.00;99992.81;5114029;28;20206;-81
2022/05/09 07:46:12;;;;;;;6.30;2.63;;;;;;;17.55;100.00;99992.53;5117185;28;20250;-81
2022/05/09 07:49:01;;;;;;;5.10;2.40;;;;;;;17.82;100.00;99987.69;5119431;27;20230;-81
2022/05/09 07:51:31;;;;;;;8.20;2.47;;;;;;;17.93;100.00;99993.03;5111809;28;20201;-81
2022/05/09 07:54:04;;;;;;;4.13;2.40;;;;;;;17.76;100.00;99990.88;5116724;27;20243;-80
2022/05/09 07:56:40;;;;;;;3.87;2.30;;;;;;;17.87;100.00;99987.34;5076085;28;20196;-80
2022/05/09 07:59:09;;;;;;;5.33;2.33;;;;;;;18.07;100.00;99994.59;5072652;28;20223;-80
2022/05/09 08:01:38;;;;;;;9.67;2.50;;;;;;;18.28;100.00;99984.78;5072434;28;20262;-81
2022/05/09 08:04:08;;;;;;;8.37;2.23;;;;;;;18.45;100.00;99980.72;5073654;28;20242;-81
2022/05/09 08:06:36;;;;;;;5.03;2.30;;;;;;;18.69;100.00;99983.19;5074739;28;20223;-81
2022/05/09 08:09:08;;;;;;;4.20;2.40;;;;;;;18.71;100.00;99986.59;5074697;28;20224;-81
2022/05/09 08:11:36;;;;;;;5.43;2.57;;;;;;;18.73;100.00;99983.81;5071726;28;20203;-81
2022/05/09 08:14:11;;;;;;;8.40;2.70;;;;;;;18.82;100.00;99983.88;5008400;28;20216;-81
2022/05/09 08:16:44;;;;;;;4.40;2.43;;;;;;;18.62;100.00;99978.44;5050337;28;20228;-82
2022/05/09 08:19:16;;;;;;;5.57;2.83;;;;;;;19.04;100.00;99985.56;5051749;28;20196;-81
2022/05/09 08:21:47;;;;;;;4.20;2.50;;;;;;;18.97;100.00;99978.16;5054051;28;20726;-81
2022/05/09 08:24:17;;;;;;;5.53;2.70;;;;;;;19.34;100.00;99984.75;5049788;28;20212;-81
2022/05/09 08:26:46;;;;;;;6.10;2.80;;;;;;;19.48;100.00;99982.66;5046794;28;20228;-81
2022/05/09 08:29:19;;;;;;;5.50;2.70;;;;;;;19.76;100.00;99984.66;5054549;28;20204;-81
2022/05/09 08:31:48;;;;;;;4.37;2.50;;;;;;;19.96;100.00;99977.50;5052029;28;20296;-81
2022/05/09 08:34:17;;;;;;;3.83;2.63;;;;;;;20.08;100.00;99978.25;5046921;28;20208;-81
2022/05/09 08:36:51;;;;;;;7.13;3.63;;;;;;;19.96;100.00;99978.34;4993989;28;20203;-81
2022/05/09 08:39:20;;;;;;;6.87;3.47;;;;;;;20.05;100.00;99975.81;5049374;28;20227;-81
2022/05/09 08:41:59;;;;;;;6.40;3.42;;;;;;;20.11;100.00;99968.03;5066633;28;20223;-82
2022/05/09 08:44:56;;;;;;;7.10;3.80;;;;;;;20.39;100.00;99966.38;5072937;28;20200;-81
2022/05/09 08:48:02;;;;;;;7.67;3.80;;;;;;;20.45;100.00;99975.75;5070113;28;20655;-82
2022/05/09 08:50:37;;;;;;;4.65;3.38;;;;;;;20.37;100.00;99973.75;5044607;28;20235;-82
2022/05/09 08:53:12;;;;;;;4.90;3.60;;;;;;;20.07;100.00;99969.28;5071696;28;20196;-81
2022/05/09 08:55:48;;;;;;;6.18;3.95;;;;;;;20.42;100.00;99967.94;5017562;28;20234;-81
2022/05/09 08:58:32;;;;;;;6.50;3.50;;;;;;;20.62;100.00;99974.19;5010481;28;20202;-81
2022/05/09 09:01:03;;;;;;;4.70;3.90;;;;;;;20.90;100.00;99980.56;5012817;28;20200;-81
2022/05/09 09:03:39;;;;;;;6.37;3.97;;;;;;;21.01;100.00;99967.75;5044937;28;20217;-81
2022/05/09 09:06:15;;;;;;;6.05;3.83;;;;;;;21.29;100.00;99971.41;5049130;28;20204;-81
2022/05/09 09:09:08;;;;;;;6.80;4.00;;;;;;;21.38;100.00;99973.22;5046837;28;20197;-81
2022/05/09 09:11:47;;;;;;;6.45;4.10;;;;;;;21.52;100.00;99979.13;5008273;28;20751;-81
2022/05/09 09:14:25;;;;;;;5.28;3.60;;;;;;;21.25;100.00;99972.69;5013309;28;20273;-82
2022/05/09 09:17:16;;;;;;;6.38;3.78;;;;;;;21.35;100.00;99960.06;5005736;28;20355;-81
2022/05/09 09:20:18;;;;;;;6.70;3.63;;;;;;;21.40;100.00;99959.59;5022331;28;20197;-81
2022/05/09 09:22:58;;;;;;;5.70;3.42;;;;;;;21.92;100.00;99957.22;4997709;28;20252;-81
2022/05/09 09:25:41;;;;;;;4.90;3.58;;;;;;;21.68;100.00;99955.94;5027267;28;20740;-81
2022/05/09 09:28:15;;;;;;;5.07;3.60;;;;;;;22.14;100.00;99959.53;5027485;28;20717;-81
2022/05/09 09:30:46;;;;;;;6.65;4.10;;;;;;;21.91;100.00;99956.38;5070816;28;20192;-81
2022/05/09 09:33:20;;;;;;;5.30;3.40;;;;;;;22.31;100.00;99959.72;5068105;28;20273;-81
2022/05/09 09:35:55;;;;;;;6.13;4.13;;;;;;;22.17;100.00;99955.66;5069588;28;20210;-81
2022/05/09 09:38:40;;;;;;;6.70;4.10;;;;;;;21.89;100.00;99952.13;5071969;28;20184;-81
2022/05/09 09:41:20;;;;;;;5.85;3.58;;;;;;;22.56;100.00;99958.91;5066809;28;20196;-82
2022/05/09 09:43:49;;;;;;;7.00;4.05;;;;;;;22.45;100.00;99948.34;5069229;28;20319;-81
2022/05/09 09:46:19;;;;;;;6.03;4.10;;;;;;;22.28;100.00;99952.75;5072807;28;20271;-81
2022/05/09 09:49:03;;;;;;;5.82;3.70;;;;;;;22.47;100.00;99947.19;5066091;28;20262;-81
2022/05/09 09:51:45;;;;;;;5.03;3.30;;;;;;;22.25;100.00;99951.19;5069553;28;20207;-81
2022/05/09 09:54:20;;;;;;;6.43;3.72;;;;;;;21.92;100.00;99952.69;5067588;28;20199;-81
2022/05/09 09:56:49;;;;;;;6.13;3.88;;;;;;;21.62;100.00;99953.84;5068784;28;20279;-80
2022/05/09 09:59:21;;;;;;;6.38;3.60;;;;;;;22.09;100.00;99944.78;5066692;28;20219;-81
2022/05/09 10:02:06;;;;;;;6.93;3.88;;;;;;;22.23;100.00;99944.28;5088542;28;20195;-81
2022/05/09 10:04:37;;;;;;;5.20;3.65;;;;;;;22.49;98.34;99934.41;5110016;28;20195;-80
2022/05/09 10:07:08;;;;;;;9.25;4.43;;;;;;;22.53;98.77;99934.94;5112824;28;20195;-81
2022/05/09 10:09:41;;;;;;;5.93;3.55;;;;;;;22.54;100.00;99926.66;5050308;28;20224;-81
2022/05/09 10:12:40;;;;;;;5.55;4.38;;;;;;;21.46;100.00;99934.75;5051884;28;20205;-81
2022/05/09 10:15:29;;;;;;;5.07;3.70;;;;;;;21.76;100.00;99928.22;5063285;28;20197;-81
2022/05/09 10:18:02;;;;;;;6.22;4.15;;;;;;;22.38;100.00;99920.28;5046364;28;20261;-80
2022/05/09 10:20:41;;;;;;;4.20;3.80;;;;;;;23.20;100.00;99919.06;5051503;28;20200;-81
2022/05/09 10:26:07;;;;;;;6.93;4.05;;;;;;;24.39;85.54;99912.53;5019475;28;20213;-82
2022/05/09 10:28:38;;;;;;;4.78;3.42;;;;;;;24.48;86.37;99913.41;5100824;28;20199;-82
2022/05/09 10:31:20;;;;;;;5.65;3.63;;;;;;;24.13;84.99;99915.38;5122005;28;20236;-81
2022/05/09 10:33:58;;;;;;;6.15;3.95;;;;;;;24.76;81.70;99914.75;5123320;28;20213;-83
2022/05/09 10:36:36;;;;;;;4.45;3.50;;;;;;;24.61;81.58;99913.75;5111088;28;20195;-82
2022/05/09 10:39:12;;;;;;;4.88;3.38;;;;;;;24.98;78.23;99902.34;5111890;28;20278;-82
2022/05/09 10:41:44;;;;;;;4.75;3.83;;;;;;;24.87;77.98;99909.97;5116353;27;20201;-82
2022/05/09 10:44:18;;;;;;;4.60;3.70;;;;;;;25.17;73.66;99906.56;5110043;28;20210;-81
2022/05/09 10:46:51;;;;;;;6.05;3.70;;;;;;;24.78;79.77;99907.28;5113452;28;20252;-81
2022/05/09 10:49:29;;;;;;;4.35;3.55;;;;;;;24.78;71.83;99899.16;5113025;28;20217;-81
2022/05/09 10:52:11;;;;;;;5.85;3.25;;;;;;;24.99;73.89;99904.03;5113820;28;20270;-82
2022/05/09 10:54:48;;;;;;;4.72;3.92;;;;;;;24.37;75.45;99905.59;5068989;28;20199;-82
2022/05/09 10:57:28;;;;;;;3.97;3.53;;;;;;;24.82;74.11;99902.38;5064936;28;20200;-81
2022/05/09 11:00:18;;;;;;;6.57;4.18;;;;;;;25.38;70.74;99897.84;5070763;28;20713;-82
2022/05/09 11:02:58;;;;;;;6.25;3.60;;;;;;;25.09;72.40;99888.47;5067176;28;20270;-82
2022/05/09 11:05:36;;;;;;;3.90;3.28;;;;;;;25.85;71.15;99886.13;5066877;28;20203;-82
2022/05/09 11:08:19;;;;;;;5.90;3.58;;;;;;;25.99;70.80;99881.81;5062896;28;20207;-81
2022/05/09 11:10:55;;;;;;;4.10;3.20;;;;;;;25.87;65.67;99875.94;5048763;28;20204;-82
2022/05/09 11:13:29;;;;;;;4.10;3.30;;;;;;;25.49;71.88;99873.06;5101373;28;20250;-82
2022/05/09 11:16:11;;;;;;;5.88;3.70;;;;;;;25.71;69.06;99878.75;5110956;28;20222;-82
2022/05/09 11:19:05;;;;;;;4.95;3.80;;;;;;;24.67;72.64;99874.28;5107711;28;20199;-82
2022/05/09 11:21:45;;;;;;;7.68;4.15;;;;;;;25.01;74.35;99871.34;5113449;28;20205;-81
2022/05/09 11:24:29;;;;;;;5.05;3.53;;;;;;;25.71;72.29;99870.59;5110874;28;20213;-81
2022/05/09 11:27:06;;;;;;;4.88;3.45;;;;;;;25.74;68.38;99871.06;5108311;28;20302;-82
2022/05/09 11:30:09;;;;;;;8.07;3.90;;;;;;;24.97;71.87;99876.25;5113704;28;20229;-82
2022/05/09 11:32:41;;;;;;;4.22;3.30;;;;;;;24.98;74.96;99872.50;5112459;28;20574;-81
2022/05/09 11:35:21;;;;;;;5.97;3.15;;;;;;;26.21;70.16;99865.50;5113286;28;20191;-82
2022/05/09 11:38:00;;;;;;;5.85;3.40;;;;;;;26.55;65.78;99861.53;5021003;28;20199;-82
2022/05/09 11:40:38;;;;;;;4.57;3.10;;;;;;;26.55;66.50;99855.25;5068303;28;20279;-82
2022/05/09 11:43:30;;;;;;;3.40;3.10;;;;;;;27.05;61.50;99860.03;5067634;28;20196;-82
2022/05/09 11:46:08;;;;;;;5.20;3.22;;;;;;;27.36;60.13;99855.22;5067521;28;20706;-82
2022/05/09 11:48:53;;;;;;;5.07;3.42;;;;;;;27.08;61.18;99846.03;5063293;28;20204;-83
2022/05/09 11:51:35;;;;;;;5.30;3.10;;;;;;;26.23;66.06;99851.75;5068356;28;20185;-82
2022/05/09 11:54:08;;;;;;;4.22;3.35;;;;;;;24.92;75.11;99848.81;5068313;28;20224;-82
2022/05/09 11:56:43;;;;;;;4.00;3.22;;;;;;;25.71;74.31;99843.47;5012353;28;20208;-82
2022/05/09 11:59:17;;;;;;;3.95;3.10;;;;;;;26.18;67.96;99836.00;4972329;28;20387;-82
2022/05/09 12:02:03;;;;;;;5.43;3.35;;;;;;;26.70;61.39;99842.50;4984015;28;20191;-81
2022/05/09 12:04:40;;;;;;;4.93;3.30;;;;;;;26.62;67.06;99835.28;5030143;28;20311;-83